Terminal Aerodrome Forecast
Issued by NWS

Home | Current Version | Previous Version | Text Only | Print | Product List | Glossary On
Versions: 1 2 3 4 5 6 7 8 9 10 11 12 13 14 15 16
797
FTUS43 KILX 301742 AAA
TAFCMI
TAF AMD
KCMI 301742Z 3018/3118 32005KT P6SM VCTS SCT030CB BKN150
      TEMPO 3018/3020 3SM -TSRA
     FM310300 VRB03KT P6SM BKN130
     FM310600 00000KT 3SM BR BKN080
     FM311200 VRB03KT P6SM OVC035=

USA.gov is the U.S. government's official web portal to all federal, state and local government web resources and services.